sensor_id;sensor_type;location;lat;lon;timestamp;P1;durP1;ratioP1;P2;durP2;ratioP2
16766;SDS011;8501;49.926;8.404;2023-05-23T00:01:14;51.63;;;32.95;;
16766;SDS011;8501;49.926;8.404;2023-05-23T00:03:41;49.95;;;31.92;;
16766;SDS011;8501;49.926;8.404;2023-05-23T00:06:07;48.38;;;31.75;;
16766;SDS011;8501;49.926;8.404;2023-05-23T00:08:32;49.40;;;31.67;;
16766;SDS011;8501;49.926;8.404;2023-05-23T00:10:58;47.47;;;31.27;;
16766;SDS011;8501;49.926;8.404;2023-05-23T00:13:24;47.53;;;30.38;;
16766;SDS011;8501;49.926;8.404;2023-05-23T00:15:50;43.50;;;30.20;;
16766;SDS011;8501;49.926;8.404;2023-05-23T00:18:16;46.03;;;29.63;;
16766;SDS011;8501;49.926;8.404;2023-05-23T00:20:42;46.72;;;29.70;;
16766;SDS011;8501;49.926;8.404;2023-05-23T00:23:09;41.30;;;27.52;;
16766;SDS011;8501;49.926;8.404;2023-05-23T00:25:37;42.70;;;28.15;;
16766;SDS011;8501;49.926;8.404;2023-05-23T00:28:04;40.83;;;27.45;;
16766;SDS011;8501;49.926;8.404;2023-05-23T00:30:31;37.47;;;26.38;;
16766;SDS011;8501;49.926;8.404;2023-05-23T00:32:57;39.47;;;26.10;;
16766;SDS011;8501;49.926;8.404;2023-05-23T00:35:24;36.72;;;26.15;;
16766;SDS011;8501;49.926;8.404;2023-05-23T00:37:50;37.47;;;26.35;;
16766;SDS011;8501;49.926;8.404;2023-05-23T00:40:18;37.78;;;26.65;;
16766;SDS011;8501;49.926;8.404;2023-05-23T00:42:45;35.80;;;25.65;;
16766;SDS011;8501;49.926;8.404;2023-05-23T00:45:12;38.10;;;26.10;;
16766;SDS011;8501;49.926;8.404;2023-05-23T00:47:38;37.17;;;25.60;;
16766;SDS011;8501;49.926;8.404;2023-05-23T00:50:06;37.47;;;26.15;;
16766;SDS011;8501;49.926;8.404;2023-05-23T00:52:33;36.72;;;25.90;;
16766;SDS011;8501;49.926;8.404;2023-05-23T00:55:00;34.95;;;25.80;;
16766;SDS011;8501;49.926;8.404;2023-05-23T00:57:26;37.58;;;26.70;;
16766;SDS011;8501;49.926;8.404;2023-05-23T00:59:52;37.78;;;25.75;;
16766;SDS011;8501;49.926;8.404;2023-05-23T01:02:18;37.65;;;27.05;;
16766;SDS011;8501;49.926;8.404;2023-05-23T01:04:46;39.75;;;26.50;;
16766;SDS011;8501;49.926;8.404;2023-05-23T01:07:18;37.58;;;26.42;;
16766;SDS011;8501;49.926;8.404;2023-05-23T01:09:44;37.25;;;26.60;;
16766;SDS011;8501;49.926;8.404;2023-05-23T01:12:19;35.95;;;26.75;;
16766;SDS011;8501;49.926;8.404;2023-05-23T01:15:05;36.97;;;26.48;;
16766;SDS011;8501;49.926;8.404;2023-05-23T01:17:54;37.72;;;26.40;;
16766;SDS011;8501;49.926;8.404;2023-05-23T01:20:42;37.47;;;26.75;;
16766;SDS011;8501;49.926;8.404;2023-05-23T01:28:42;34.95;;;26.20;;
16766;SDS011;8501;49.926;8.404;2023-05-23T01:31:11;37.58;;;27.48;;
16766;SDS011;8501;49.926;8.404;2023-05-23T01:33:37;38.90;;;26.85;;
16766;SDS011;8501;49.926;8.404;2023-05-23T01:36:05;34.42;;;26.20;;
16766;SDS011;8501;49.926;8.404;2023-05-23T01:38:31;36.10;;;26.60;;
16766;SDS011;8501;49.926;8.404;2023-05-23T01:40:57;36.40;;;27.08;;
16766;SDS011;8501;49.926;8.404;2023-05-23T01:43:23;37.90;;;27.55;;
16766;SDS011;8501;49.926;8.404;2023-05-23T01:45:49;35.88;;;27.17;;
16766;SDS011;8501;49.926;8.404;2023-05-23T01:48:17;37.80;;;27.17;;
16766;SDS011;8501;49.926;8.404;2023-05-23T01:50:45;35.70;;;27.58;;
16766;SDS011;8501;49.926;8.404;2023-05-23T01:53:11;37.97;;;27.25;;
16766;SDS011;8501;49.926;8.404;2023-05-23T01:55:38;38.53;;;27.95;;
16766;SDS011;8501;49.926;8.404;2023-05-23T01:58:07;36.90;;;27.05;;
16766;SDS011;8501;49.926;8.404;2023-05-23T02:00:32;36.92;;;26.83;;
16766;SDS011;8501;49.926;8.404;2023-05-23T02:02:58;35.88;;;26.95;;
16766;SDS011;8501;49.926;8.404;2023-05-23T02:05:24;34.40;;;26.00;;
16766;SDS011;8501;49.926;8.404;2023-05-23T02:07:51;32.00;;;24.73;;
16766;SDS011;8501;49.926;8.404;2023-05-23T02:10:17;33.35;;;25.42;;
16766;SDS011;8501;49.926;8.404;2023-05-23T02:12:43;31.65;;;24.27;;
16766;SDS011;8501;49.926;8.404;2023-05-23T02:15:08;30.52;;;24.23;;
16766;SDS011;8501;49.926;8.404;2023-05-23T02:17:34;33.95;;;22.95;;
16766;SDS011;8501;49.926;8.404;2023-05-23T02:20:00;29.05;;;22.00;;
16766;SDS011;8501;49.926;8.404;2023-05-23T02:22:25;27.67;;;21.27;;
16766;SDS011;8501;49.926;8.404;2023-05-23T02:24:51;27.67;;;20.55;;
16766;SDS011;8501;49.926;8.404;2023-05-23T02:27:17;26.05;;;19.23;;
16766;SDS011;8501;49.926;8.404;2023-05-23T02:29:43;25.77;;;19.23;;
16766;SDS011;8501;49.926;8.404;2023-05-23T02:32:09;24.17;;;18.33;;
16766;SDS011;8501;49.926;8.404;2023-05-23T02:34:34;27.98;;;18.30;;
16766;SDS011;8501;49.926;8.404;2023-05-23T02:37:02;23.65;;;17.88;;
16766;SDS011;8501;49.926;8.404;2023-05-23T02:39:28;21.40;;;16.73;;
16766;SDS011;8501;49.926;8.404;2023-05-23T02:41:53;22.80;;;16.67;;
16766;SDS011;8501;49.926;8.404;2023-05-23T02:44:19;21.08;;;15.75;;
16766;SDS011;8501;49.926;8.404;2023-05-23T02:46:44;21.98;;;16.27;;
16766;SDS011;8501;49.926;8.404;2023-05-23T02:49:10;20.92;;;15.45;;
16766;SDS011;8501;49.926;8.404;2023-05-23T02:51:36;22.63;;;15.50;;
16766;SDS011;8501;49.926;8.404;2023-05-23T02:54:01;22.48;;;15.68;;
16766;SDS011;8501;49.926;8.404;2023-05-23T02:56:27;21.98;;;14.98;;
16766;SDS011;8501;49.926;8.404;2023-05-23T02:58:53;22.00;;;15.20;;
16766;SDS011;8501;49.926;8.404;2023-05-23T03:01:19;22.70;;;14.70;;
16766;SDS011;8501;49.926;8.404;2023-05-23T03:03:44;22.73;;;15.40;;
16766;SDS011;8501;49.926;8.404;2023-05-23T03:06:10;23.00;;;15.38;;
16766;SDS011;8501;49.926;8.404;2023-05-23T03:08:38;23.48;;;15.10;;
16766;SDS011;8501;49.926;8.404;2023-05-23T03:11:05;22.08;;;14.80;;
16766;SDS011;8501;49.926;8.404;2023-05-23T03:13:30;21.63;;;14.88;;
16766;SDS011;8501;49.926;8.404;2023-05-23T03:15:56;22.45;;;14.95;;
16766;SDS011;8501;49.926;8.404;2023-05-23T03:18:22;21.48;;;14.30;;
16766;SDS011;8501;49.926;8.404;2023-05-23T03:20:47;21.30;;;14.90;;
16766;SDS011;8501;49.926;8.404;2023-05-23T03:23:13;20.85;;;14.88;;
16766;SDS011;8501;49.926;8.404;2023-05-23T03:25:39;22.13;;;15.85;;
16766;SDS011;8501;49.926;8.404;2023-05-23T03:28:04;22.73;;;14.80;;
16766;SDS011;8501;49.926;8.404;2023-05-23T03:30:30;20.98;;;15.13;;
16766;SDS011;8501;49.926;8.404;2023-05-23T03:32:55;22.70;;;15.30;;
16766;SDS011;8501;49.926;8.404;2023-05-23T03:35:21;22.42;;;14.77;;
16766;SDS011;8501;49.926;8.404;2023-05-23T03:37:46;20.15;;;14.90;;
16766;SDS011;8501;49.926;8.404;2023-05-23T03:40:12;21.60;;;15.13;;
16766;SDS011;8501;49.926;8.404;2023-05-23T03:42:38;22.38;;;14.82;;
16766;SDS011;8501;49.926;8.404;2023-05-23T03:45:03;20.58;;;14.90;;
16766;SDS011;8501;49.926;8.404;2023-05-23T03:47:30;23.33;;;15.45;;
16766;SDS011;8501;49.926;8.404;2023-05-23T03:49:55;20.92;;;15.18;;
16766;SDS011;8501;49.926;8.404;2023-05-23T03:52:21;21.85;;;14.68;;
16766;SDS011;8501;49.926;8.404;2023-05-23T03:54:47;25.58;;;15.90;;
16766;SDS011;8501;49.926;8.404;2023-05-23T03:57:13;23.60;;;15.98;;
16766;SDS011;8501;49.926;8.404;2023-05-23T03:59:38;21.52;;;15.52;;
16766;SDS011;8501;49.926;8.404;2023-05-23T04:02:04;24.60;;;16.45;;
16766;SDS011;8501;49.926;8.404;2023-05-23T04:04:29;25.48;;;17.35;;
16766;SDS011;8501;49.926;8.404;2023-05-23T04:06:56;24.75;;;17.48;;
16766;SDS011;8501;49.926;8.404;2023-05-23T04:09:22;25.92;;;17.90;;
16766;SDS011;8501;49.926;8.404;2023-05-23T04:11:48;25.65;;;18.02;;
16766;SDS011;8501;49.926;8.404;2023-05-23T04:14:13;25.90;;;18.45;;
16766;SDS011;8501;49.926;8.404;2023-05-23T04:16:39;27.40;;;18.95;;
16766;SDS011;8501;49.926;8.404;2023-05-23T04:19:08;26.58;;;18.48;;
16766;SDS011;8501;49.926;8.404;2023-05-23T04:21:34;27.17;;;18.58;;
16766;SDS011;8501;49.926;8.404;2023-05-23T04:24:00;28.08;;;19.55;;
16766;SDS011;8501;49.926;8.404;2023-05-23T04:26:26;28.27;;;19.33;;
16766;SDS011;8501;49.926;8.404;2023-05-23T04:28:52;27.63;;;19.42;;
16766;SDS011;8501;49.926;8.404;2023-05-23T04:31:21;25.27;;;18.63;;
16766;SDS011;8501;49.926;8.404;2023-05-23T04:33:47;26.73;;;18.17;;
16766;SDS011;8501;49.926;8.404;2023-05-23T04:36:13;26.25;;;18.15;;
16766;SDS011;8501;49.926;8.404;2023-05-23T04:38:39;25.23;;;18.08;;
16766;SDS011;8501;49.926;8.404;2023-05-23T04:41:05;23.67;;;17.48;;
16766;SDS011;8501;49.926;8.404;2023-05-23T04:43:34;23.83;;;17.48;;
16766;SDS011;8501;49.926;8.404;2023-05-23T04:46:01;24.58;;;17.33;;
16766;SDS011;8501;49.926;8.404;2023-05-23T04:48:30;23.58;;;17.38;;
16766;SDS011;8501;49.926;8.404;2023-05-23T04:50:56;23.75;;;17.30;;
16766;SDS011;8501;49.926;8.404;2023-05-23T04:53:26;26.08;;;16.85;;
16766;SDS011;8501;49.926;8.404;2023-05-23T04:55:51;21.95;;;15.75;;
16766;SDS011;8501;49.926;8.404;2023-05-23T04:58:17;22.70;;;15.88;;
16766;SDS011;8501;49.926;8.404;2023-05-23T05:00:42;21.63;;;15.52;;
16766;SDS011;8501;49.926;8.404;2023-05-23T05:03:08;21.17;;;15.45;;
16766;SDS011;8501;49.926;8.404;2023-05-23T05:05:34;20.02;;;14.45;;
16766;SDS011;8501;49.926;8.404;2023-05-23T05:07:59;18.42;;;13.02;;
16766;SDS011;8501;49.926;8.404;2023-05-23T05:10:25;16.90;;;12.82;;
16766;SDS011;8501;49.926;8.404;2023-05-23T05:12:51;18.05;;;13.45;;
16766;SDS011;8501;49.926;8.404;2023-05-23T05:15:17;18.25;;;13.20;;
16766;SDS011;8501;49.926;8.404;2023-05-23T05:17:43;18.80;;;13.50;;
16766;SDS011;8501;49.926;8.404;2023-05-23T05:20:09;18.67;;;12.85;;
16766;SDS011;8501;49.926;8.404;2023-05-23T05:22:35;18.33;;;13.05;;
16766;SDS011;8501;49.926;8.404;2023-05-23T05:25:07;21.15;;;13.57;;
16766;SDS011;8501;49.926;8.404;2023-05-23T05:27:34;18.80;;;13.55;;
16766;SDS011;8501;49.926;8.404;2023-05-23T05:30:02;17.33;;;12.68;;
16766;SDS011;8501;49.926;8.404;2023-05-23T05:32:31;19.70;;;13.85;;
16766;SDS011;8501;49.926;8.404;2023-05-23T05:34:58;18.35;;;13.52;;
16766;SDS011;8501;49.926;8.404;2023-05-23T05:37:24;18.85;;;13.40;;
16766;SDS011;8501;49.926;8.404;2023-05-23T05:39:50;20.58;;;13.15;;
16766;SDS011;8501;49.926;8.404;2023-05-23T05:42:17;16.63;;;12.32;;
16766;SDS011;8501;49.926;8.404;2023-05-23T05:44:43;16.90;;;12.45;;
16766;SDS011;8501;49.926;8.404;2023-05-23T05:47:08;16.58;;;12.60;;
16766;SDS011;8501;49.926;8.404;2023-05-23T05:49:34;16.13;;;12.23;;
16766;SDS011;8501;49.926;8.404;2023-05-23T05:52:02;15.93;;;12.13;;
16766;SDS011;8501;49.926;8.404;2023-05-23T05:54:28;16.27;;;11.75;;
16766;SDS011;8501;49.926;8.404;2023-05-23T05:56:54;14.65;;;11.63;;
16766;SDS011;8501;49.926;8.404;2023-05-23T05:59:20;14.70;;;11.10;;
16766;SDS011;8501;49.926;8.404;2023-05-23T06:01:45;13.98;;;11.30;;
16766;SDS011;8501;49.926;8.404;2023-05-23T06:04:11;14.15;;;10.75;;
16766;SDS011;8501;49.926;8.404;2023-05-23T06:06:36;15.45;;;11.70;;
16766;SDS011;8501;49.926;8.404;2023-05-23T06:09:02;14.65;;;11.65;;
16766;SDS011;8501;49.926;8.404;2023-05-23T06:11:27;15.35;;;11.57;;
16766;SDS011;8501;49.926;8.404;2023-05-23T06:13:53;18.15;;;11.77;;
16766;SDS011;8501;49.926;8.404;2023-05-23T06:16:18;15.13;;;11.75;;
16766;SDS011;8501;49.926;8.404;2023-05-23T06:18:44;14.02;;;11.00;;
16766;SDS011;8501;49.926;8.404;2023-05-23T06:21:10;17.58;;;12.52;;
16766;SDS011;8501;49.926;8.404;2023-05-23T06:23:35;16.58;;;12.55;;
16766;SDS011;8501;49.926;8.404;2023-05-23T06:26:01;17.23;;;12.43;;
16766;SDS011;8501;49.926;8.404;2023-05-23T06:28:26;18.08;;;12.75;;
16766;SDS011;8501;49.926;8.404;2023-05-23T06:30:52;15.07;;;12.60;;
16766;SDS011;8501;49.926;8.404;2023-05-23T06:33:18;16.20;;;12.15;;
16766;SDS011;8501;49.926;8.404;2023-05-23T06:35:44;16.00;;;12.50;;
16766;SDS011;8501;49.926;8.404;2023-05-23T06:38:09;13.70;;;11.25;;
16766;SDS011;8501;49.926;8.404;2023-05-23T06:40:35;15.85;;;12.50;;
16766;SDS011;8501;49.926;8.404;2023-05-23T06:43:01;15.82;;;12.52;;
16766;SDS011;8501;49.926;8.404;2023-05-23T06:45:26;16.40;;;12.77;;
16766;SDS011;8501;49.926;8.404;2023-05-23T06:47:52;16.77;;;12.73;;
16766;SDS011;8501;49.926;8.404;2023-05-23T06:50:17;15.57;;;12.18;;
16766;SDS011;8501;49.926;8.404;2023-05-23T06:52:46;16.38;;;12.43;;
16766;SDS011;8501;49.926;8.404;2023-05-23T06:55:11;12.68;;;10.68;;
16766;SDS011;8501;49.926;8.404;2023-05-23T06:57:42;12.95;;;10.60;;
16766;SDS011;8501;49.926;8.404;2023-05-23T07:00:08;11.73;;;10.20;;
16766;SDS011;8501;49.926;8.404;2023-05-23T07:02:34;12.45;;;10.30;;
16766;SDS011;8501;49.926;8.404;2023-05-23T07:04:59;12.55;;;9.73;;
16766;SDS011;8501;49.926;8.404;2023-05-23T07:07:25;10.85;;;9.15;;
16766;SDS011;8501;49.926;8.404;2023-05-23T07:09:51;12.32;;;9.73;;
16766;SDS011;8501;49.926;8.404;2023-05-23T07:12:16;12.25;;;9.68;;
16766;SDS011;8501;49.926;8.404;2023-05-23T07:14:42;13.85;;;9.77;;
16766;SDS011;8501;49.926;8.404;2023-05-23T07:17:07;12.00;;;9.48;;
16766;SDS011;8501;49.926;8.404;2023-05-23T07:19:33;10.82;;;8.90;;
16766;SDS011;8501;49.926;8.404;2023-05-23T07:21:58;10.23;;;8.05;;
16766;SDS011;8501;49.926;8.404;2023-05-23T07:24:24;12.15;;;9.00;;
16766;SDS011;8501;49.926;8.404;2023-05-23T07:26:49;11.63;;;8.80;;
16766;SDS011;8501;49.926;8.404;2023-05-23T07:29:15;12.60;;;8.50;;
16766;SDS011;8501;49.926;8.404;2023-05-23T07:31:41;11.02;;;9.00;;
16766;SDS011;8501;49.926;8.404;2023-05-23T07:34:06;9.63;;;8.38;;
16766;SDS011;8501;49.926;8.404;2023-05-23T07:36:32;10.73;;;8.02;;
16766;SDS011;8501;49.926;8.404;2023-05-23T07:38:59;10.68;;;8.23;;
16766;SDS011;8501;49.926;8.404;2023-05-23T07:41:25;9.40;;;7.78;;
16766;SDS011;8501;49.926;8.404;2023-05-23T07:43:51;9.98;;;7.90;;
16766;SDS011;8501;49.926;8.404;2023-05-23T07:46:16;8.82;;;7.28;;
16766;SDS011;8501;49.926;8.404;2023-05-23T07:48:42;9.13;;;7.35;;
16766;SDS011;8501;49.926;8.404;2023-05-23T07:51:07;8.45;;;7.43;;
16766;SDS011;8501;49.926;8.404;2023-05-23T07:53:33;8.82;;;7.30;;
16766;SDS011;8501;49.926;8.404;2023-05-23T07:55:59;9.38;;;7.45;;
16766;SDS011;8501;49.926;8.404;2023-05-23T07:58:25;8.80;;;7.30;;
16766;SDS011;8501;49.926;8.404;2023-05-23T08:00:50;8.35;;;7.00;;
16766;SDS011;8501;49.926;8.404;2023-05-23T08:03:16;10.13;;;7.55;;
16766;SDS011;8501;49.926;8.404;2023-05-23T08:05:43;9.57;;;7.80;;
16766;SDS011;8501;49.926;8.404;2023-05-23T08:08:08;8.80;;;7.78;;
16766;SDS011;8501;49.926;8.404;2023-05-23T08:10:34;9.68;;;8.10;;
16766;SDS011;8501;49.926;8.404;2023-05-23T08:13:00;8.98;;;6.95;;
16766;SDS011;8501;49.926;8.404;2023-05-23T08:15:30;9.07;;;7.30;;
16766;SDS011;8501;49.926;8.404;2023-05-23T08:17:56;9.13;;;7.28;;
16766;SDS011;8501;49.926;8.404;2023-05-23T08:20:22;9.77;;;6.95;;
16766;SDS011;8501;49.926;8.404;2023-05-23T08:22:55;9.65;;;6.70;;
16766;SDS011;8501;49.926;8.404;2023-05-23T08:25:25;9.45;;;7.10;;
16766;SDS011;8501;49.926;8.404;2023-05-23T08:27:54;8.13;;;6.97;;
16766;SDS011;8501;49.926;8.404;2023-05-23T08:30:24;9.27;;;7.60;;
16766;SDS011;8501;49.926;8.404;2023-05-23T08:32:51;9.15;;;6.80;;
16766;SDS011;8501;49.926;8.404;2023-05-23T08:35:17;9.90;;;7.35;;
16766;SDS011;8501;49.926;8.404;2023-05-23T08:37:43;9.65;;;7.13;;
16766;SDS011;8501;49.926;8.404;2023-05-23T08:40:12;7.95;;;6.40;;
16766;SDS011;8501;49.926;8.404;2023-05-23T08:42:42;8.15;;;6.88;;
16766;SDS011;8501;49.926;8.404;2023-05-23T08:45:08;8.13;;;6.72;;
16766;SDS011;8501;49.926;8.404;2023-05-23T08:47:34;8.35;;;7.47;;
16766;SDS011;8501;49.926;8.404;2023-05-23T08:50:03;8.40;;;7.07;;
16766;SDS011;8501;49.926;8.404;2023-05-23T08:52:32;8.07;;;6.40;;
16766;SDS011;8501;49.926;8.404;2023-05-23T08:55:02;8.25;;;6.47;;
16766;SDS011;8501;49.926;8.404;2023-05-23T08:57:27;7.63;;;5.97;;
16766;SDS011;8501;49.926;8.404;2023-05-23T08:59:54;8.18;;;6.03;;
16766;SDS011;8501;49.926;8.404;2023-05-23T09:02:21;6.90;;;5.90;;
16766;SDS011;8501;49.926;8.404;2023-05-23T09:04:48;7.85;;;5.90;;
16766;SDS011;8501;49.926;8.404;2023-05-23T09:07:14;7.57;;;6.45;;
16766;SDS011;8501;49.926;8.404;2023-05-23T09:09:42;6.07;;;5.47;;
16766;SDS011;8501;49.926;8.404;2023-05-23T09:12:08;6.90;;;5.70;;
16766;SDS011;8501;49.926;8.404;2023-05-23T09:14:34;7.15;;;5.43;;
16766;SDS011;8501;49.926;8.404;2023-05-23T09:17:01;7.25;;;5.95;;
16766;SDS011;8501;49.926;8.404;2023-05-23T09:19:27;15.82;;;5.55;;
16766;SDS011;8501;49.926;8.404;2023-05-23T09:21:53;6.28;;;5.65;;
16766;SDS011;8501;49.926;8.404;2023-05-23T09:24:19;6.07;;;5.47;;
16766;SDS011;8501;49.926;8.404;2023-05-23T09:26:45;6.68;;;6.03;;
16766;SDS011;8501;49.926;8.404;2023-05-23T09:29:12;7.25;;;5.70;;
16766;SDS011;8501;49.926;8.404;2023-05-23T09:31:38;7.82;;;5.90;;
16766;SDS011;8501;49.926;8.404;2023-05-23T09:34:03;7.25;;;5.30;;
16766;SDS011;8501;49.926;8.404;2023-05-23T09:36:31;7.55;;;5.63;;
16766;SDS011;8501;49.926;8.404;2023-05-23T09:39:03;5.78;;;5.13;;
16766;SDS011;8501;49.926;8.404;2023-05-23T09:41:32;7.30;;;6.45;;
16766;SDS011;8501;49.926;8.404;2023-05-23T09:43:59;6.97;;;6.28;;
16766;SDS011;8501;49.926;8.404;2023-05-23T09:46:30;8.20;;;6.15;;
16766;SDS011;8501;49.926;8.404;2023-05-23T09:48:59;6.75;;;5.80;;
16766;SDS011;8501;49.926;8.404;2023-05-23T09:51:24;7.63;;;6.57;;
16766;SDS011;8501;49.926;8.404;2023-05-23T09:53:50;7.72;;;6.75;;
16766;SDS011;8501;49.926;8.404;2023-05-23T09:56:17;7.35;;;6.25;;
16766;SDS011;8501;49.926;8.404;2023-05-23T09:58:47;9.75;;;6.68;;
16766;SDS011;8501;49.926;8.404;2023-05-23T10:01:13;7.78;;;6.10;;
16766;SDS011;8501;49.926;8.404;2023-05-23T10:03:52;8.20;;;6.85;;
16766;SDS011;8501;49.926;8.404;2023-05-23T10:06:24;7.80;;;6.25;;
16766;SDS011;8501;49.926;8.404;2023-05-23T10:09:05;7.30;;;6.40;;
16766;SDS011;8501;49.926;8.404;2023-05-23T10:13:59;8.50;;;6.10;;
16766;SDS011;8501;49.926;8.404;2023-05-23T10:16:31;9.02;;;6.40;;
16766;SDS011;8501;49.926;8.404;2023-05-23T10:21:55;7.07;;;6.20;;
16766;SDS011;8501;49.926;8.404;2023-05-23T10:24:26;8.45;;;6.50;;
16766;SDS011;8501;49.926;8.404;2023-05-23T10:26:53;8.98;;;6.70;;
16766;SDS011;8501;49.926;8.404;2023-05-23T10:29:22;10.35;;;7.40;;
16766;SDS011;8501;49.926;8.404;2023-05-23T10:31:49;10.85;;;8.15;;
16766;SDS011;8501;49.926;8.404;2023-05-23T10:34:20;8.65;;;7.75;;
16766;SDS011;8501;49.926;8.404;2023-05-23T10:42:30;8.32;;;7.35;;
16766;SDS011;8501;49.926;8.404;2023-05-23T10:45:18;10.18;;;8.13;;
16766;SDS011;8501;49.926;8.404;2023-05-23T10:47:46;10.30;;;8.10;;
16766;SDS011;8501;49.926;8.404;2023-05-23T10:50:13;10.98;;;8.20;;
16766;SDS011;8501;49.926;8.404;2023-05-23T10:52:41;10.27;;;8.43;;
16766;SDS011;8501;49.926;8.404;2023-05-23T10:55:14;10.90;;;9.00;;
16766;SDS011;8501;49.926;8.404;2023-05-23T10:57:42;10.80;;;9.00;;
16766;SDS011;8501;49.926;8.404;2023-05-23T11:00:14;12.45;;;9.82;;
16766;SDS011;8501;49.926;8.404;2023-05-23T11:02:53;12.23;;;9.65;;
16766;SDS011;8501;49.926;8.404;2023-05-23T11:05:23;14.48;;;9.27;;
16766;SDS011;8501;49.926;8.404;2023-05-23T11:08:11;11.40;;;9.55;;
16766;SDS011;8501;49.926;8.404;2023-05-23T11:14:08;11.65;;;9.05;;
16766;SDS011;8501;49.926;8.404;2023-05-23T11:16:25;11.82;;;8.75;;
16766;SDS011;8501;49.926;8.404;2023-05-23T11:21:42;10.20;;;8.48;;
16766;SDS011;8501;49.926;8.404;2023-05-23T11:24:09;11.95;;;9.15;;
16766;SDS011;8501;49.926;8.404;2023-05-23T11:26:35;11.63;;;9.05;;
16766;SDS011;8501;49.926;8.404;2023-05-23T11:29:00;12.95;;;9.00;;
16766;SDS011;8501;49.926;8.404;2023-05-23T11:31:28;11.55;;;8.98;;
16766;SDS011;8501;49.926;8.404;2023-05-23T11:33:54;14.70;;;9.68;;
16766;SDS011;8501;49.926;8.404;2023-05-23T11:36:20;12.57;;;8.27;;
16766;SDS011;8501;49.926;8.404;2023-05-23T11:38:50;9.73;;;7.82;;
16766;SDS011;8501;49.926;8.404;2023-05-23T11:41:17;10.80;;;7.55;;
16766;SDS011;8501;49.926;8.404;2023-05-23T11:43:52;10.90;;;8.00;;
16766;SDS011;8501;49.926;8.404;2023-05-23T11:46:18;8.30;;;7.20;;
16766;SDS011;8501;49.926;8.404;2023-05-23T11:48:47;9.77;;;7.43;;
16766;SDS011;8501;49.926;8.404;2023-05-23T11:51:13;9.18;;;7.25;;
16766;SDS011;8501;49.926;8.404;2023-05-23T11:53:39;10.77;;;7.30;;
16766;SDS011;8501;49.926;8.404;2023-05-23T11:56:06;11.82;;;7.97;;
16766;SDS011;8501;49.926;8.404;2023-05-23T11:58:32;10.48;;;8.38;;
16766;SDS011;8501;49.926;8.404;2023-05-23T12:01:03;12.25;;;8.77;;
16766;SDS011;8501;49.926;8.404;2023-05-23T12:03:46;10.55;;;7.90;;
16766;SDS011;8501;49.926;8.404;2023-05-23T12:06:19;10.32;;;8.27;;
16766;SDS011;8501;49.926;8.404;2023-05-23T12:08:48;11.25;;;8.60;;
16766;SDS011;8501;49.926;8.404;2023-05-23T12:11:15;11.18;;;8.10;;
16766;SDS011;8501;49.926;8.404;2023-05-23T12:13:43;10.77;;;8.40;;
16766;SDS011;8501;49.926;8.404;2023-05-23T12:16:09;11.18;;;8.20;;
16766;SDS011;8501;49.926;8.404;2023-05-23T12:18:37;12.00;;;8.75;;
16766;SDS011;8501;49.926;8.404;2023-05-23T12:21:04;11.70;;;8.73;;
16766;SDS011;8501;49.926;8.404;2023-05-23T12:23:32;10.60;;;8.68;;
16766;SDS011;8501;49.926;8.404;2023-05-23T12:25:58;9.88;;;7.80;;
16766;SDS011;8501;49.926;8.404;2023-05-23T12:31:20;11.27;;;8.05;;
16766;SDS011;8501;49.926;8.404;2023-05-23T12:33:46;8.88;;;7.00;;
16766;SDS011;8501;49.926;8.404;2023-05-23T12:36:22;8.23;;;6.78;;
16766;SDS011;8501;49.926;8.404;2023-05-23T12:38:49;8.10;;;6.20;;
16766;SDS011;8501;49.926;8.404;2023-05-23T12:41:16;8.98;;;5.57;;
16766;SDS011;8501;49.926;8.404;2023-05-23T12:44:17;8.48;;;6.53;;
16766;SDS011;8501;49.926;8.404;2023-05-23T12:46:39;7.95;;;5.63;;
16766;SDS011;8501;49.926;8.404;2023-05-23T12:49:05;5.95;;;4.43;;
16766;SDS011;8501;49.926;8.404;2023-05-23T12:51:30;5.38;;;4.20;;
16766;SDS011;8501;49.926;8.404;2023-05-23T12:53:56;5.03;;;4.13;;
16766;SDS011;8501;49.926;8.404;2023-05-23T12:56:22;4.75;;;4.25;;
16766;SDS011;8501;49.926;8.404;2023-05-23T12:58:48;5.38;;;4.32;;
16766;SDS011;8501;49.926;8.404;2023-05-23T13:01:14;6.20;;;4.60;;
16766;SDS011;8501;49.926;8.404;2023-05-23T13:03:39;6.35;;;4.22;;
16766;SDS011;8501;49.926;8.404;2023-05-23T13:06:05;4.97;;;4.50;;
16766;SDS011;8501;49.926;8.404;2023-05-23T13:08:31;4.30;;;3.90;;
16766;SDS011;8501;49.926;8.404;2023-05-23T13:10:56;4.70;;;3.88;;
16766;SDS011;8501;49.926;8.404;2023-05-23T13:13:22;4.30;;;3.70;;
16766;SDS011;8501;49.926;8.404;2023-05-23T13:15:49;7.25;;;4.15;;
16766;SDS011;8501;49.926;8.404;2023-05-23T13:18:15;5.60;;;4.22;;
16766;SDS011;8501;49.926;8.404;2023-05-23T13:20:40;7.88;;;4.30;;
16766;SDS011;8501;49.926;8.404;2023-05-23T13:23:06;6.18;;;4.95;;
16766;SDS011;8501;49.926;8.404;2023-05-23T13:25:33;12.00;;;5.47;;
16766;SDS011;8501;49.926;8.404;2023-05-23T13:27:58;7.88;;;6.00;;
16766;SDS011;8501;49.926;8.404;2023-05-23T13:30:25;7.80;;;5.88;;
16766;SDS011;8501;49.926;8.404;2023-05-23T13:32:51;7.32;;;6.07;;
16766;SDS011;8501;49.926;8.404;2023-05-23T13:35:17;7.72;;;6.72;;
16766;SDS011;8501;49.926;8.404;2023-05-23T13:37:43;8.70;;;6.50;;
16766;SDS011;8501;49.926;8.404;2023-05-23T13:40:11;8.38;;;6.57;;
16766;SDS011;8501;49.926;8.404;2023-05-23T13:42:40;9.40;;;6.40;;
16766;SDS011;8501;49.926;8.404;2023-05-23T13:45:06;8.77;;;6.53;;
16766;SDS011;8501;49.926;8.404;2023-05-23T13:47:32;9.50;;;6.70;;
16766;SDS011;8501;49.926;8.404;2023-05-23T13:49:57;10.23;;;6.90;;
16766;SDS011;8501;49.926;8.404;2023-05-23T13:52:23;12.15;;;6.65;;
16766;SDS011;8501;49.926;8.404;2023-05-23T13:54:48;9.73;;;6.22;;
16766;SDS011;8501;49.926;8.404;2023-05-23T13:57:14;8.60;;;6.00;;
16766;SDS011;8501;49.926;8.404;2023-05-23T13:59:40;8.45;;;6.43;;
16766;SDS011;8501;49.926;8.404;2023-05-23T14:02:05;8.50;;;5.88;;
16766;SDS011;8501;49.926;8.404;2023-05-23T14:04:32;7.72;;;6.68;;
16766;SDS011;8501;49.926;8.404;2023-05-23T14:06:57;9.13;;;6.25;;
16766;SDS011;8501;49.926;8.404;2023-05-23T14:09:23;7.57;;;5.68;;
16766;SDS011;8501;49.926;8.404;2023-05-23T14:11:49;9.43;;;6.65;;
16766;SDS011;8501;49.926;8.404;2023-05-23T14:14:16;8.00;;;6.40;;
16766;SDS011;8501;49.926;8.404;2023-05-23T14:16:42;9.90;;;6.63;;
16766;SDS011;8501;49.926;8.404;2023-05-23T14:19:08;10.48;;;6.93;;
16766;SDS011;8501;49.926;8.404;2023-05-23T14:21:33;8.88;;;6.57;;
16766;SDS011;8501;49.926;8.404;2023-05-23T14:24:00;9.00;;;6.53;;
16766;SDS011;8501;49.926;8.404;2023-05-23T14:26:26;9.85;;;6.70;;
16766;SDS011;8501;49.926;8.404;2023-05-23T14:28:51;12.85;;;7.95;;
16766;SDS011;8501;49.926;8.404;2023-05-23T14:31:17;9.95;;;8.00;;
16766;SDS011;8501;49.926;8.404;2023-05-23T14:33:43;12.93;;;8.65;;
16766;SDS011;8501;49.926;8.404;2023-05-23T14:36:08;14.27;;;9.07;;
16766;SDS011;8501;49.926;8.404;2023-05-23T14:38:34;17.90;;;10.45;;
16766;SDS011;8501;49.926;8.404;2023-05-23T14:40:59;14.05;;;10.55;;
16766;SDS011;8501;49.926;8.404;2023-05-23T14:43:25;15.45;;;10.55;;
16766;SDS011;8501;49.926;8.404;2023-05-23T14:45:51;12.45;;;9.98;;
16766;SDS011;8501;49.926;8.404;2023-05-23T14:48:16;16.98;;;11.45;;
16766;SDS011;8501;49.926;8.404;2023-05-23T14:50:42;15.30;;;10.93;;
16766;SDS011;8501;49.926;8.404;2023-05-23T14:53:07;14.10;;;10.88;;
16766;SDS011;8501;49.926;8.404;2023-05-23T14:55:33;16.10;;;10.98;;
16766;SDS011;8501;49.926;8.404;2023-05-23T14:57:59;17.73;;;10.95;;
16766;SDS011;8501;49.926;8.404;2023-05-23T15:00:25;16.60;;;10.73;;
16766;SDS011;8501;49.926;8.404;2023-05-23T15:02:50;16.73;;;11.13;;
16766;SDS011;8501;49.926;8.404;2023-05-23T15:05:16;15.20;;;10.52;;
16766;SDS011;8501;49.926;8.404;2023-05-23T15:07:42;15.65;;;10.27;;
16766;SDS011;8501;49.926;8.404;2023-05-23T15:10:08;15.02;;;9.73;;